Time;durP1;ratioP1;P1;durP2;ratioP2;P2;SDS_P1;SDS_P2;PMS_P1;PMS_P2;Temp;Humidity;BMP_temperature;BMP_pressure;BME280_temperature;BME280_humidity;BME280_pressure;Samples;Min_cycle;Max_cycle;Signal;HPM_P1;HPM_P2
2022/11/27 00:13:45;;;;;;;;;;;;;;;;;;;;;
2022/11/27 00:21:02;;;;;;;;;;;;;;;;;;;;;
2022/11/27 00:28:44;;;;;;;;;;;;;;;;;;;;;
2022/11/27 02:31:01;;;;;;;21.85;6.47;;;5.90;99.90;;;;;;6271169;22;20027;-90
2022/11/27 03:14:37;;;;;;;;;;;;;;;;;;;;;
2022/11/27 03:26:24;;;;;;;;;;;;;;;;;;;;;
2022/11/27 03:30:09;;;;;;;;;;;;;;;;;;;;;
2022/11/27 07:06:16;;;;;;;;;;;;;;;;;;;;;
2022/11/27 07:14:06;;;;;;;16.00;4.95;;;5.00;99.90;;;;;;6125412;22;20111;-91
2022/11/27 07:38:43;;;;;;;14.35;4.32;;;5.30;99.90;;;;;;6136528;22;20030;-93
2022/11/27 07:42:04;;;;;;;;;;;;;;;;;;;;;
2022/11/27 07:44:43;;;;;;;;;;;;;;;;;;;;;
2022/11/27 07:47:34;;;;;;;15.70;4.88;;;5.80;99.90;;;;;;6268628;22;20020;-92
2022/11/27 08:02:29;;;;;;;;;;;;;;;;;;;;;
2022/11/27 08:05:16;;;;;;;;;;;;;;;;;;;;;
2022/11/27 08:08:16;;;;;;;;;;;;;;;;;;;;;
2022/11/27 08:11:33;;;;;;;14.50;5.07;;;5.10;99.90;;;;;;6247758;22;20565;-90
2022/11/27 08:15:05;;;;;;;14.80;4.72;;;4.80;99.90;;;;;;6144476;22;20019;-90
2022/11/27 08:18:48;;;;;;;;;;;;;;;;;;;;;
2022/11/27 08:21:36;;;;;;;;;;;;;;;;;;;;;
2022/11/27 08:24:41;;;;;;;;;;;;;;;;;;;;;
2022/11/27 08:27:56;;;;;;;;;;;6.00;99.90;;;;;;6257559;22;20069;-90
2022/11/27 08:30:38;;;;;;;19.20;5.22;;;6.00;99.90;;;;;;6232667;22;19926;-91
2022/11/27 08:33:24;;;;;;;31.45;5.45;;;5.70;99.90;;;;;;6247264;22;20470;-95
2022/11/27 08:35:55;;;;;;;20.88;5.50;;;6.40;99.90;;;;;;6246171;22;20031;-91
2022/11/27 08:39:13;;;;;;;;;;;;;;;;;;;;;
2022/11/27 08:41:54;;;;;;;;;;;;;;;;;;;;;
2022/11/27 08:48:36;;;;;;;19.58;5.57;;;5.60;99.90;;;;;;6177937;22;20415;-90
2022/11/27 08:51:27;;;;;;;15.18;5.25;;;5.60;99.90;;;;;;6246288;22;20054;-90
2022/11/27 08:54:43;;;;;;;15.73;5.00;;;5.60;99.90;;;;;;6209612;22;20015;-89
2022/11/27 09:01:53;;;;;;;;;;;;;;;;;;;;;
2022/11/27 09:05:08;;;;;;;;;;;;;;;;;;;;;
2022/11/27 09:08:18;;;;;;;12.57;5.18;;;5.70;99.90;;;;;;6271407;22;20519;-90
2022/11/27 09:11:36;;;;;;;;;;;;;;;;;;;;;
2022/11/27 09:14:59;;;;;;;12.13;5.40;;;5.40;99.90;;;;;;6241708;22;20019;-91
2022/11/27 09:22:05;;;;;;;;;;;;;;;;;;;;;
2022/11/27 09:24:37;;;;;;;18.92;5.60;;;5.70;99.90;;;;;;6266355;22;20100;-89
2022/11/27 09:27:33;;;;;;;14.23;6.05;;;5.70;99.90;;;;;;6244658;22;20243;-91
2022/11/27 09:30:12;;;;;;;16.85;6.15;;;5.30;99.90;;;;;;6221356;22;20030;-90
2022/11/27 09:39:18;;;;;;;15.25;6.05;;;5.70;99.90;;;;;;6204055;22;20081;-90
2022/11/27 09:41:54;;;;;;;14.82;5.90;;;5.40;99.90;;;;;;6219916;22;20019;-90
2022/11/27 09:45:05;;;;;;;15.02;6.25;;;5.70;99.90;;;;;;6220825;22;20393;-91
2022/11/27 09:47:57;;;;;;;15.00;5.80;;;5.30;99.90;;;;;;6218748;22;20317;-90
2022/11/27 09:50:29;;;;;;;17.10;5.97;;;5.40;99.90;;;;;;6219505;22;20027;-92
2022/11/27 09:53:28;;;;;;;14.40;5.88;;;5.60;99.90;;;;;;6219286;22;20089;-91
2022/11/27 09:56:02;;;;;;;16.50;6.55;;;5.60;99.90;;;;;;6222560;22;20015;-91
2022/11/27 09:59:03;;;;;;;14.85;6.22;;;5.60;99.90;;;;;;6213251;22;20073;-89
2022/11/27 10:01:34;;;;;;;19.45;5.95;;;5.60;99.90;;;;;;6221549;22;20444;-90
2022/11/27 10:04:27;;;;;;;15.65;6.82;;;5.90;99.90;;;;;;6218411;22;20011;-89
2022/11/27 10:06:54;;;;;;;18.95;6.55;;;6.10;99.90;;;;;;6217654;22;20040;-88
2022/11/27 10:09:44;;;;;;;15.07;7.40;;;5.60;99.90;;;;;;6244182;22;20023;-89
2022/11/27 10:12:25;;;;;;;16.40;7.22;;;5.60;99.90;;;;;;6242894;22;20016;-89
2022/11/27 10:15:02;;;;;;;14.65;6.88;;;5.60;99.90;;;;;;6220852;22;20415;-88
2022/11/27 10:17:53;;;;;;;;;;;;;;;;;;;;;
2022/11/27 10:20:27;;;;;;;17.30;7.28;;;5.50;99.90;;;;;;6242188;22;20321;-89
2022/11/27 10:23:11;;;;;;;16.25;6.40;;;5.60;99.90;;;;;;6218034;22;20023;-87
2022/11/27 10:25:44;;;;;;;20.52;7.80;;;5.60;99.90;;;;;;6217234;22;20024;-86
2022/11/27 10:28:10;;;;;;;18.95;7.70;;;5.70;99.90;;;;;;6250772;22;20011;-88
2022/11/27 10:30:41;;;;;;;18.13;7.00;;;5.60;99.90;;;;;;6243157;22;20058;-87
2022/11/27 10:33:17;;;;;;;17.52;7.20;;;6.20;99.90;;;;;;6215082;22;20023;-87
2022/11/27 10:35:48;;;;;;;19.13;7.45;;;6.30;99.90;;;;;;6217413;22;20024;-89
2022/11/27 10:38:19;;;;;;;17.42;6.88;;;5.60;99.90;;;;;;6218247;22;20480;-91
2022/11/27 10:40:55;;;;;;;15.10;7.18;;;5.60;99.90;;;;;;6217440;22;20026;-89
2022/11/27 10:43:44;;;;;;;;;;;;;;;;;;;;;
2022/11/27 10:46:40;;;;;;;15.70;6.85;;;5.50;99.90;;;;;;6270835;22;20028;-88
2022/11/27 10:49:05;;;;;;;17.85;7.30;;;6.40;99.90;;;;;;6215429;22;20063;-87
2022/11/27 10:51:47;;;;;;;;;;;;;;;;;;;;;
2022/11/27 10:55:10;;;;;;;19.48;8.65;;;6.10;99.90;;;;;;6245607;22;20114;-88
2022/11/27 10:57:40;;;;;;;;;;;;;;;;;;;;;
2022/11/27 11:00:38;;;;;;;;;;;;;;;;;;;;;
2022/11/27 11:03:32;;;;;;;15.30;7.05;;;6.50;99.90;;;;;;6268308;22;20023;-89
2022/11/27 11:06:31;;;;;;;;;;;;;;;;;;;;;
2022/11/27 11:13:03;;;;;;;17.52;6.90;;;5.70;99.90;;;;;;6173940;22;20023;-88
2022/11/27 11:16:44;;;;;;;17.38;7.97;;;5.70;99.90;;;;;;6243297;22;20701;-88
2022/11/27 11:18:49;;;;;;;13.20;7.22;;;5.70;99.90;;;;;;6218181;22;20027;-89
2022/11/27 11:21:34;;;;;;;18.65;7.47;;;5.60;99.90;;;;;;6218166;22;20019;-88
2022/11/27 11:24:32;;;;;;;21.45;7.75;;;5.40;99.90;;;;;;6215265;22;20460;-88
2022/11/27 11:27:34;;;;;;;;;;;;;;;;;;;;;
2022/11/27 11:30:38;;;;;;;;;;;;;;;;;;;;;
2022/11/27 11:36:19;;;;;;;22.52;7.60;;;5.40;99.90;;;;;;6175241;22;20501;-89
2022/11/27 11:39:53;;;;;;;22.27;8.60;;;5.70;99.90;;;;;;6217852;22;20513;-88
2022/11/27 11:42:31;;;;;;;15.90;7.15;;;5.60;99.90;;;;;;6135112;22;20050;-89
2022/11/27 11:45:45;;;;;;;19.77;8.20;;;5.70;99.90;;;;;;6196184;22;20344;-90
2022/11/27 11:49:36;;;;;;;16.50;8.02;;;5.70;99.90;;;;;;6243760;22;20024;-89
2022/11/27 11:52:04;;;;;;;17.92;8.20;;;5.20;99.90;;;;;;6215808;22;20058;-90
2022/11/27 11:55:22;;;;;;;18.30;7.28;;;5.80;99.90;;;;;;6213214;23;20024;-92
2022/11/27 11:58:32;;;;;;;18.02;8.55;;;5.70;99.90;;;;;;6229271;22;20024;-90
2022/11/27 12:18:34;;;;;;;;;;;;;;;;;;;;;
2022/11/27 12:23:03;;;;;;;;;;;;;;;;;;;;;
2022/11/27 12:26:04;;;;;;;;;;;;;;;;;;;;;
2022/11/27 12:29:10;;;;;;;16.95;8.32;;;6.40;99.90;;;;;;6278262;22;20028;-89
2022/11/27 12:33:28;;;;;;;;;;;;;;;;;;;;;
2022/11/27 12:36:39;;;;;;;;;;;;;;;;;;;;;
2022/11/27 12:43:35;;;;;;;;;;;;;;;;;;;;;
2022/11/27 12:50:52;;;;;;;16.23;7.38;;;6.00;99.90;;;;;;6159602;22;20027;-90
2022/11/27 12:53:40;;;;;;;16.02;6.88;;;6.00;99.90;;;;;;6250352;22;20098;-90
2022/11/27 12:57:25;;;;;;;;;;;;;;;;;;;;;
2022/11/27 13:23:09;;;;;;;;;;;;;;;;;;;;;
2022/11/27 13:27:03;;;;;;;17.58;7.38;;;5.90;99.90;;;;;;5952585;24;20060;-91
2022/11/27 13:33:32;;;;;;;;;;;;;;;;;;;;;
2022/11/27 13:52:32;;;;;;;15.00;7.38;;;5.90;99.90;;;;;;6130682;23;20024;-90
2022/11/27 14:07:40;;;;;;;17.70;8.13;;;5.60;99.90;;;;;;6084789;23;20385;-90
2022/11/27 14:10:56;;;;;;;17.35;7.97;;;6.00;99.90;;;;;;6178470;23;20044;-91
2022/11/27 14:14:07;;;;;;;;;;;5.50;99.90;;;;;;6061236;23;20095;-89
2022/11/27 14:17:35;;;;;;;;;;;;;;;;;;;;;
2022/11/27 14:20:53;;;;;;;;;;;;;;;;;;;;;
2022/11/27 14:24:06;;;;;;;;;;;;;;;;;;;;;
2022/11/27 14:26:47;;;;;;;15.63;7.55;;;5.90;99.90;;;;;;6183058;23;20103;-89
2022/11/27 14:29:20;;;;;;;16.20;7.65;;;5.90;99.90;;;;;;6158377;23;20103;-89
2022/11/27 14:31:59;;;;;;;15.55;8.35;;;5.80;99.90;;;;;;6168646;23;20016;-90
2022/11/27 14:34:46;;;;;;;;;;;;;;;;;;;;;
2022/11/27 14:37:32;;;;;;;15.63;7.95;;;5.80;99.90;;;;;;6213161;23;20525;-89
2022/11/27 14:44:22;;;;;;;17.33;8.35;;;5.60;99.90;;;;;;6156100;23;20024;-91
2022/11/27 14:54:11;;;;;;;16.15;7.80;;;5.90;99.90;;;;;;6160336;22;20039;-90
2022/11/27 15:01:00;;;;;;;;;;;;;;;;;;;;;
2022/11/27 15:04:38;;;;;;;14.00;7.65;;;5.80;99.90;;;;;;6205209;22;20089;-90
2022/11/27 15:07:41;;;;;;;16.15;8.27;;;5.80;99.90;;;;;;6232039;22;20020;-89
2022/11/27 15:10:49;;;;;;;;;;;;;;;;;;;;;
2022/11/27 15:14:26;;;;;;;11.82;7.63;;;5.80;99.90;;;;;;6246235;22;20191;-90
2022/11/27 15:20:34;;;;;;;20.30;9.23;;;6.30;99.90;;;;;;6243080;22;20024;-89
2022/11/27 15:23:39;;;;;;;18.00;8.75;;;5.80;99.90;;;;;;6224451;22;20030;-90
2022/11/27 15:26:09;;;;;;;17.48;9.25;;;5.80;99.90;;;;;;6230327;22;20024;-90
2022/11/27 15:29:19;;;;;;;18.80;8.95;;;5.80;99.90;;;;;;6217782;22;20024;-90
2022/11/27 15:32:20;;;;;;;17.55;9.55;;;5.70;99.90;;;;;;6197075;22;20066;-89
2022/11/27 15:35:17;;;;;;;23.40;8.70;;;5.70;99.90;;;;;;6219577;22;20027;-90
2022/11/27 15:38:31;;;;;;;17.55;9.10;;;5.80;99.90;;;;;;6123887;22;20073;-90
2022/11/27 15:44:38;;;;;;;18.80;10.13;;;5.80;99.90;;;;;;6346583;22;20106;-90
2022/11/27 15:51:18;;;;;;;21.60;9.50;;;5.50;99.90;;;;;;6255191;22;20347;-90
2022/11/27 16:00:33;;;;;;;18.88;9.68;;;5.80;99.90;;;;;;6333785;22;20442;-89
2022/11/27 16:03:21;;;;;;;;;;;5.70;99.90;;;;;;6221938;22;20022;-90
2022/11/27 16:05:51;;;;;;;20.45;9.77;;;5.80;99.90;;;;;;6308745;22;19925;-89
2022/11/27 16:12:21;;;;;;;21.60;9.95;;;5.80;99.90;;;;;;6283093;22;20075;-90
2022/11/27 16:19:21;;;;;;;16.77;8.93;;;5.90;99.90;;;;;;6331108;22;20033;-91
2022/11/27 16:22:45;;;;;;;;;;;;;;;;;;;;;
2022/11/27 16:37:45;;;;;;;;;;;;;;;;;;;;;
2022/11/27 16:40:14;;;;;;;18.77;10.05;;;6.50;99.90;;;;;;6330356;22;20089;-90
2022/11/27 16:43:31;;;;;;;;;;;;;;;;;;;;;
2022/11/27 16:46:48;;;;;;;16.73;10.23;;;5.90;99.90;;;;;;6256543;22;20024;-89
2022/11/27 16:52:31;;;;;;;21.92;10.50;;;5.60;99.90;;;;;;6220628;22;20023;-90
2022/11/27 16:55:04;;;;;;;20.58;10.18;;;6.00;99.90;;;;;;6250360;22;20073;-90
2022/11/27 16:58:43;;;;;;;17.27;10.10;;;5.80;99.90;;;;;;6276292;22;20021;-90
2022/11/27 17:00:47;;;;;;;19.55;10.05;;;6.60;99.90;;;;;;6255210;22;20049;-89
2022/11/27 17:03:41;;;;;;;17.17;10.13;;;6.30;99.90;;;;;;6249051;22;20025;-90
2022/11/27 17:09:48;;;;;;;17.88;10.18;;;5.80;99.90;;;;;;6196282;22;20324;-90
2022/11/27 17:16:24;;;;;;;19.05;9.88;;;5.80;99.90;;;;;;6301574;22;20448;-90
2022/11/27 17:26:10;;;;;;;17.00;9.65;;;5.80;99.90;;;;;;6222805;22;20452;-90
2022/11/27 17:28:59;;;;;;;;;;;;;;;;;;;;;
2022/11/27 17:32:48;;;;;;;18.20;9.80;;;5.50;99.90;;;;;;6303560;22;20027;-89
2022/11/27 17:51:08;;;;;;;22.98;11.07;;;5.90;99.90;;;;;;6278154;22;20030;-92
2022/11/27 18:05:58;;;;;;;;;;;;;;;;;;;;;
2022/11/27 18:17:03;;;;;;;;;;;;;;;;;;;;;
2022/11/27 18:33:09;;;;;;;;;;;;;;;;;;;;;
2022/11/27 18:40:32;;;;;;;16.25;8.40;;;6.00;99.90;;;;;;5865730;24;20441;-90
2022/11/27 18:43:53;;;;;;;18.20;9.23;;;6.00;99.90;;;;;;5920111;24;20426;-90
2022/11/27 19:03:14;;;;;;;;;;;;;;;;;;;;;
2022/11/27 19:11:08;;;;;;;;;;;;;;;;;;;;;
2022/11/27 19:14:20;;;;;;;15.43;8.07;;;6.00;99.90;;;;;;6140635;23;20025;-90
2022/11/27 19:27:57;;;;;;;17.65;9.07;;;6.10;99.90;;;;;;6178061;22;20016;-90
2022/11/27 19:30:29;;;;;;;19.67;11.75;;;6.00;99.90;;;;;;6171241;22;20071;-91
2022/11/27 19:33:44;;;;;;;13.95;9.40;;;6.10;99.90;;;;;;6300402;22;20019;-91
2022/11/27 19:36:56;;;;;;;15.32;8.25;;;6.00;99.90;;;;;;6307762;22;20029;-90
2022/11/27 19:44:40;;;;;;;14.98;8.68;;;6.10;99.90;;;;;;6190497;22;20510;-90
2022/11/27 19:51:37;;;;;;;14.73;8.35;;;5.90;99.90;;;;;;6249833;22;20030;-91
2022/11/27 19:55:33;;;;;;;14.00;8.35;;;6.10;99.90;;;;;;6267328;22;20019;-91
2022/11/27 19:58:24;;;;;;;15.50;9.13;;;5.70;99.90;;;;;;6222913;22;20018;-91
2022/11/27 20:10:56;;;;;;;15.15;9.07;;;6.10;99.90;;;;;;6333280;22;20614;-91
2022/11/27 20:13:38;;;;;;;;;;;;;;;;;;;;;
2022/11/27 20:16:49;;;;;;;14.10;8.77;;;6.00;99.90;;;;;;6306121;22;20023;-91
2022/11/27 20:19:38;;;;;;;;;;;;;;;;;;;;;
2022/11/27 20:22:36;;;;;;;;;;;;;;;;;;;;;
2022/11/27 20:25:34;;;;;;;14.80;9.02;;;5.60;99.90;;;;;;6304984;22;20011;-90
2022/11/27 20:28:01;;;;;;;13.18;9.13;;;6.00;99.90;;;;;;6281602;22;20030;-89
2022/11/27 20:30:35;;;;;;;16.95;9.80;;;6.00;99.90;;;;;;6307431;22;20023;-89
2022/11/27 20:33:27;;;;;;;18.10;9.63;;;5.60;99.90;;;;;;6278256;22;20011;-89
2022/11/27 20:35:54;;;;;;;16.27;9.43;;;5.90;99.90;;;;;;6281219;22;20014;-88
2022/11/27 20:38:25;;;;;;;18.08;9.80;;;5.90;99.90;;;;;;6306511;22;20430;-89
2022/11/27 20:40:52;;;;;;;13.07;8.88;;;6.00;99.90;;;;;;6281502;22;20093;-90
2022/11/27 20:43:21;;;;;;;20.92;9.48;;;6.00;99.90;;;;;;6281423;22;20332;-89
2022/11/27 20:46:21;;;;;;;;;;;;;;;;;;;;;
2022/11/27 20:48:56;;;;;;;14.48;9.23;;;5.90;99.90;;;;;;6305459;22;20019;-89
2022/11/27 20:51:36;;;;;;;15.38;9.73;;;5.90;99.90;;;;;;6280730;22;20066;-89
2022/11/27 20:54:44;;;;;;;15.82;9.80;;;6.00;99.90;;;;;;6307662;22;20023;-89
2022/11/27 21:04:46;;;;;;;21.38;10.40;;;5.90;99.90;;;;;;6136192;22;20037;-90
2022/11/27 21:07:55;;;;;;;20.17;11.25;;;6.00;99.90;;;;;;6259780;22;20365;-89
2022/11/27 21:10:26;;;;;;;;;;;;;;;;;;;;;
2022/11/27 21:13:15;;;;;;;18.80;10.60;;;5.90;99.90;;;;;;6304614;22;20018;-90
2022/11/27 21:16:20;;;;;;;17.77;10.32;;;5.90;99.90;;;;;;6301883;22;20019;-88
2022/11/27 21:19:10;;;;;;;19.60;11.38;;;5.90;99.90;;;;;;6226903;22;20046;-90
2022/11/27 21:22:07;;;;;;;16.60;11.55;;;6.30;99.90;;;;;;6305966;22;20023;-89
2022/11/27 21:25:21;;;;;;;17.33;10.52;;;5.90;99.90;;;;;;6194826;22;20026;-89
2022/11/27 21:28:04;;;;;;;;;;;;;;;;;;;;;
2022/11/27 21:30:53;;;;;;;;;;;;;;;;;;;;;
2022/11/27 21:36:59;;;;;;;16.25;10.57;;;5.90;99.90;;;;;;6333450;22;20030;-89
2022/11/27 21:39:31;;;;;;;18.35;10.73;;;5.80;99.90;;;;;;6280180;22;20435;-89
2022/11/27 21:42:15;;;;;;;19.17;10.57;;;5.80;99.90;;;;;;6306776;22;20023;-89
2022/11/27 21:44:41;;;;;;;15.38;10.75;;;6.10;99.90;;;;;;6275692;22;20022;-89
2022/11/27 21:47:13;;;;;;;16.88;10.25;;;5.80;99.90;;;;;;6279519;22;20022;-89
2022/11/27 21:50:06;;;;;;;20.58;10.93;;;5.70;99.90;;;;;;6278581;22;20328;-89
2022/11/27 21:52:40;;;;;;;14.52;9.25;;;5.80;99.90;;;;;;6279610;22;20019;-89
2022/11/27 21:55:07;;;;;;;16.38;10.02;;;5.80;99.90;;;;;;6319110;22;20401;-89
2022/11/27 21:57:35;;;;;;;16.73;10.45;;;5.90;99.90;;;;;;6278358;22;20500;-89
2022/11/27 22:00:01;;;;;;;17.05;10.23;;;5.80;99.90;;;;;;6279359;22;20034;-89
2022/11/27 22:02:27;;;;;;;16.75;9.60;;;5.80;99.90;;;;;;6298807;22;20146;-89
2022/11/27 22:04:55;;;;;;;17.02;9.60;;;5.70;99.90;;;;;;6277315;22;20347;-90
2022/11/27 22:07:40;;;;;;;14.02;9.63;;;5.80;99.90;;;;;;6279747;22;20033;-89
2022/11/27 22:10:09;;;;;;;18.63;9.93;;;6.60;99.90;;;;;;6278658;22;20026;-88
2022/11/27 22:12:37;;;;;;;22.17;10.75;;;5.80;99.90;;;;;;6278676;22;20014;-88
2022/11/27 22:15:03;;;;;;;16.08;10.40;;;5.90;99.90;;;;;;6279373;22;20468;-88
2022/11/27 22:17:29;;;;;;;18.55;9.60;;;5.90;99.90;;;;;;6302641;22;20061;-88
2022/11/27 22:19:55;;;;;;;21.50;10.55;;;5.90;99.90;;;;;;6305411;22;20011;-88
2022/11/27 22:22:21;;;;;;;16.10;9.30;;;6.80;99.90;;;;;;6304609;22;20399;-88
2022/11/27 22:24:46;;;;;;;19.80;10.82;;;6.30;99.90;;;;;;6304195;22;20019;-88
2022/11/27 22:27:14;;;;;;;17.05;9.82;;;6.40;99.90;;;;;;6279209;22;20049;-88
2022/11/27 22:29:40;;;;;;;13.27;9.07;;;6.30;99.90;;;;;;6304866;22;20253;-88
2022/11/27 22:32:06;;;;;;;19.33;10.52;;;5.70;99.90;;;;;;6303195;22;20056;-87
2022/11/27 22:34:32;;;;;;;18.05;10.10;;;6.40;99.90;;;;;;6304935;22;20097;-88
2022/11/27 22:37:07;;;;;;;;;;;;;;;;;;;;;
2022/11/27 22:39:51;;;;;;;;;;;;;;;;;;;;;
2022/11/27 22:42:17;;;;;;;19.13;10.50;;;6.60;99.90;;;;;;6302982;22;20018;-88
2022/11/27 22:44:45;;;;;;;16.20;10.45;;;5.70;99.90;;;;;;6303327;22;20072;-88
2022/11/27 22:47:11;;;;;;;16.50;10.02;;;5.70;99.90;;;;;;6303720;22;20038;-88
2022/11/27 22:49:39;;;;;;;17.08;9.13;;;6.30;99.90;;;;;;6278973;22;20025;-88
2022/11/27 22:52:05;;;;;;;13.00;9.48;;;5.70;99.90;;;;;;6265446;22;20022;-88
2022/11/27 22:54:31;;;;;;;14.32;9.90;;;5.80;99.90;;;;;;6273577;22;20031;-88
2022/11/27 22:56:59;;;;;;;18.40;10.38;;;5.80;99.90;;;;;;6303359;22;20063;-88
2022/11/27 22:59:27;;;;;;;18.35;10.15;;;5.70;99.90;;;;;;6278020;22;20015;-88
2022/11/27 23:01:56;;;;;;;18.52;10.80;;;5.70;99.90;;;;;;6305102;22;20019;-88
2022/11/27 23:04:21;;;;;;;18.70;10.25;;;6.20;99.90;;;;;;6303409;22;20046;-88
2022/11/27 23:06:50;;;;;;;14.45;9.52;;;5.80;99.90;;;;;;6278663;22;20331;-88
2022/11/27 23:09:20;;;;;;;17.00;9.88;;;6.10;99.90;;;;;;6303895;22;20011;-88
2022/11/27 23:11:47;;;;;;;15.75;10.75;;;5.90;99.90;;;;;;6278850;22;20019;-88
2022/11/27 23:14:18;;;;;;;16.58;10.45;;;6.10;99.90;;;;;;6302812;22;20018;-88
2022/11/27 23:16:44;;;;;;;17.73;10.25;;;5.70;99.90;;;;;;6304493;22;20019;-88
2022/11/27 23:19:10;;;;;;;17.33;10.20;;;6.30;99.90;;;;;;6277210;22;20018;-88
2022/11/27 23:21:37;;;;;;;17.63;10.10;;;5.60;99.90;;;;;;6277913;22;20498;-88
2022/11/27 23:24:06;;;;;;;19.83;11.00;;;6.30;99.90;;;;;;6278388;22;20015;-88
2022/11/27 23:26:32;;;;;;;19.80;10.98;;;5.70;99.90;;;;;;6278938;22;20076;-88
2022/11/27 23:28:58;;;;;;;16.88;9.98;;;6.00;99.90;;;;;;6303711;22;20415;-88
2022/11/27 23:31:28;;;;;;;19.35;10.93;;;6.10;99.90;;;;;;6277681;22;20054;-88
2022/11/27 23:33:55;;;;;;;16.05;10.57;;;5.20;99.90;;;;;;6277486;22;20050;-89
2022/11/27 23:36:24;;;;;;;17.60;10.23;;;6.60;99.90;;;;;;6303874;22;20221;-88
2022/11/27 23:38:50;;;;;;;18.70;10.15;;;5.60;99.90;;;;;;6304394;22;20018;-88
2022/11/27 23:41:21;;;;;;;15.95;9.57;;;5.00;99.90;;;;;;6277099;22;20021;-88
2022/11/27 23:43:50;;;;;;;14.32;8.77;;;6.60;99.90;;;;;;6278948;22;20019;-89
2022/11/27 23:46:18;;;;;;;15.60;9.93;;;6.70;99.90;;;;;;6303963;22;20014;-88
2022/11/27 23:48:44;;;;;;;13.88;9.13;;;6.30;99.90;;;;;;6276684;22;20015;-88
2022/11/27 23:51:28;;;;;;;12.88;8.13;;;6.70;99.90;;;;;;6278102;22;20037;-87
2022/11/27 23:53:57;;;;;;;17.60;9.85;;;5.50;99.90;;;;;;6278069;22;20110;-88
2022/11/27 23:56:28;;;;;;;16.25;9.52;;;6.50;99.90;;;;;;6303571;22;20065;-88
2022/11/27 23:58:57;;;;;;;17.63;9.45;;;6.20;99.90;;;;;;6278466;22;20022;-89
